La Salle, Canada
Current Conditions -  °F | °C
As of 6:00 AM on Monday 20 Oct 2014 (Local Time) from CYWG Reporting Station
Overcast Overcast  
Wind Chill: 39°   Ceiling: 1000
Heat Index: 43°   Visibility: 15mi
Dew Point: 39°   Wind: 6mph
Humidity: 87%   Direction: 20°NNE
Pressure: 30.04"   Gusts: NA
Location:  49.68°N, 97.27°W
Report Text: CYWG 201100Z 02005KT 15SM OVC010 06/04 A3004 RMK ST8 SLP180
Loading
Personal Weather Stations






























Interactive Weather Map New forecast layout! Learn more

10-Day Weather Forecast

Advertisements
Track Severe Weather on mobile